createdAt,value
2023-01-20T00:00:31.177Z,41.95
2023-01-20T00:02:36.543Z,47.00
2023-01-20T00:04:42.721Z,46.90
2023-01-20T00:06:48.167Z,44.17
2023-01-20T00:08:57.157Z,45.17
2023-01-20T00:11:07.458Z,42.10
2023-01-20T00:13:14.946Z,41.28
2023-01-20T00:15:19.945Z,51.13
2023-01-20T00:17:24.899Z,43.60
2023-01-20T00:19:30.025Z,44.65
2023-01-20T00:21:35.732Z,42.90
2023-01-20T00:23:41.977Z,42.53
2023-01-20T00:25:46.866Z,45.40
2023-01-20T00:27:53.564Z,43.65
2023-01-20T00:30:01.402Z,46.88
2023-01-20T00:32:06.735Z,39.72
2023-01-20T00:34:15.172Z,41.50
2023-01-20T00:36:22.903Z,43.40
2023-01-20T00:38:28.484Z,49.53
2023-01-20T00:40:33.396Z,43.10
2023-01-20T00:42:38.614Z,44.45
2023-01-20T00:44:43.495Z,39.95
2023-01-20T00:46:51.417Z,44.28
2023-01-20T00:48:56.695Z,42.05
2023-01-20T00:51:01.665Z,43.10
2023-01-20T00:53:07.478Z,38.30
2023-01-20T00:55:13.409Z,42.92
2023-01-20T00:57:18.774Z,39.33
2023-01-20T00:59:23.981Z,46.25
2023-01-20T01:01:29.307Z,39.97
2023-01-20T01:03:36.844Z,42.20
2023-01-20T01:05:42.124Z,43.58
2023-01-20T01:07:47.262Z,47.20
2023-01-20T01:09:53.177Z,43.92
2023-01-20T01:11:58.275Z,39.60
2023-01-20T01:14:03.468Z,43.45
2023-01-20T01:16:13.994Z,40.50
2023-01-20T01:18:18.998Z,42.35
2023-01-20T01:20:28.246Z,45.47
2023-01-20T01:22:36.756Z,47.07
2023-01-20T01:24:41.882Z,43.97
2023-01-20T01:26:47.076Z,44.65
2023-01-20T01:28:53.486Z,46.80
2023-01-20T01:31:02.330Z,45.42
2023-01-20T01:33:07.797Z,46.95
2023-01-20T01:35:13.413Z,47.35
2023-01-20T01:37:21.992Z,48.42
2023-01-20T01:39:27.737Z,46.35
2023-01-20T01:41:33.859Z,55.33
2023-01-20T01:43:40.578Z,54.20
2023-01-20T01:45:46.238Z,45.95
2023-01-20T01:47:57.328Z,45.60
2023-01-20T01:50:02.748Z,46.40
2023-01-20T01:52:12.600Z,44.20
2023-01-20T01:54:24.208Z,45.95
2023-01-20T01:56:31.334Z,47.08
2023-01-20T01:58:40.497Z,51.38
2023-01-20T02:00:46.352Z,47.25
2023-01-20T02:02:52.836Z,47.97
2023-01-20T02:04:57.842Z,51.35
2023-01-20T02:07:08.882Z,50.58
2023-01-20T02:09:14.553Z,57.00
2023-01-20T02:11:23.678Z,56.25
2023-01-20T02:13:28.650Z,60.97
2023-01-20T02:15:42.569Z,60.97
2023-01-20T02:18:01.544Z,56.13
2023-01-20T02:20:33.549Z,56.80
2023-01-20T02:22:47.752Z,52.08
2023-01-20T02:25:38.837Z,52.40
2023-01-20T02:28:32.011Z,53.25
2023-01-20T02:31:17.449Z,52.63
2023-01-20T02:33:32.818Z,52.72
2023-01-20T02:35:43.362Z,57.42
2023-01-20T02:37:54.362Z,51.03
2023-01-20T02:40:14.778Z,50.80
2023-01-20T02:42:25.097Z,51.50
2023-01-20T02:44:39.612Z,53.25
2023-01-20T02:46:53.339Z,49.83
2023-01-20T02:49:08.479Z,45.65
2023-01-20T02:51:20.753Z,42.85
2023-01-20T02:53:28.627Z,43.78
2023-01-20T02:55:41.282Z,46.53
2023-01-20T02:57:50.778Z,41.42
2023-01-20T03:00:10.575Z,43.08
2023-01-20T03:02:20.446Z,42.63
2023-01-20T03:04:34.500Z,40.08
2023-01-20T03:06:45.299Z,44.17
2023-01-20T03:08:54.168Z,40.10
2023-01-20T03:11:05.321Z,38.40
2023-01-20T03:13:21.906Z,44.58
2023-01-20T03:15:31.484Z,40.97
2023-01-20T03:17:37.811Z,45.70
2023-01-20T03:19:45.941Z,47.70
2023-01-20T03:21:51.358Z,46.45
2023-01-20T03:24:03.494Z,48.35
2023-01-20T03:26:14.203Z,49.17
2023-01-20T03:28:19.638Z,54.42
2023-01-20T03:30:25.699Z,49.83
2023-01-20T03:32:32.257Z,50.90
2023-01-20T03:34:41.039Z,50.15
2023-01-20T03:36:49.800Z,52.17
2023-01-20T03:38:56.629Z,50.17
2023-01-20T03:41:08.210Z,50.17
2023-01-20T03:43:22.586Z,59.63
2023-01-20T03:45:40.313Z,52.28
2023-01-20T03:47:59.520Z,50.95
2023-01-20T03:50:15.198Z,49.17
2023-01-20T03:52:47.837Z,57.70
2023-01-20T03:55:00.122Z,54.75
2023-01-20T03:57:11.982Z,51.05
2023-01-20T03:59:20.975Z,55.22
2023-01-20T04:01:45.401Z,54.53
2023-01-20T04:03:54.828Z,48.88
2023-01-20T04:06:02.679Z,49.97
2023-01-20T04:08:13.419Z,48.97
2023-01-20T04:10:20.308Z,52.35
2023-01-20T04:12:25.595Z,50.42
2023-01-20T04:14:31.327Z,50.55
2023-01-20T04:16:36.382Z,52.10
2023-01-20T04:18:44.560Z,46.13
2023-01-20T04:20:53.144Z,47.83
2023-01-20T04:23:01.420Z,46.70
2023-01-20T04:25:17.821Z,50.65
2023-01-20T04:27:22.784Z,52.80
2023-01-20T04:29:27.690Z,53.20
2023-01-20T04:31:33.010Z,50.33
2023-01-20T04:33:40.247Z,52.55
2023-01-20T04:35:48.325Z,58.33
2023-01-20T04:37:53.238Z,65.93
2023-01-20T04:39:58.505Z,64.70
2023-01-20T04:42:06.682Z,62.08
2023-01-20T04:44:11.595Z,69.85
2023-01-20T04:46:18.160Z,74.93
2023-01-20T04:48:23.077Z,80.15
2023-01-20T04:50:28.615Z,91.50
2023-01-20T04:52:33.615Z,84.82
2023-01-20T04:54:38.526Z,97.40
2023-01-20T04:58:54.399Z,91.32
2023-01-20T05:00:59.684Z,92.25
2023-01-20T05:03:06.537Z,93.70
2023-01-20T05:05:12.389Z,95.68
2023-01-20T05:07:17.354Z,81.78
2023-01-20T05:09:22.794Z,95.22
2023-01-20T05:11:28.075Z,90.15
2023-01-20T05:13:33.749Z,105.70
2023-01-20T05:15:42.764Z,85.45
2023-01-20T05:17:47.840Z,94.97
2023-01-20T05:19:52.759Z,103.13
2023-01-20T05:21:57.689Z,90.68
2023-01-20T05:24:02.982Z,96.40
2023-01-20T05:26:08.413Z,85.22
2023-01-20T05:28:14.694Z,104.50
2023-01-20T05:30:20.845Z,99.35
2023-01-20T05:32:28.394Z,89.93
2023-01-20T05:34:33.626Z,92.32
2023-01-20T05:36:38.673Z,105.28
2023-01-20T05:38:43.923Z,93.45
2023-01-20T05:40:49.131Z,96.63
2023-01-20T05:45:01.421Z,84.25
2023-01-20T05:47:06.384Z,88.43
2023-01-20T05:49:14.316Z,97.57
2023-01-20T05:51:19.610Z,98.85
2023-01-20T05:53:25.190Z,101.93
2023-01-20T05:55:30.052Z,101.75
2023-01-20T05:57:35.483Z,86.93
2023-01-20T05:59:40.412Z,102.00
2023-01-20T06:01:45.359Z,102.03
2023-01-20T06:03:50.486Z,88.53
2023-01-20T06:06:03.265Z,98.10
2023-01-20T06:08:09.713Z,96.97
2023-01-20T06:10:15.315Z,97.72
2023-01-20T06:12:20.149Z,93.80
2023-01-20T06:14:25.351Z,97.78
2023-01-20T06:16:30.712Z,90.30
2023-01-20T06:18:37.025Z,99.30
2023-01-20T06:20:41.932Z,85.25
2023-01-20T06:22:49.800Z,91.60
2023-01-20T06:24:54.821Z,93.97
2023-01-20T06:26:59.971Z,83.90
2023-01-20T06:29:04.851Z,81.55
2023-01-20T06:31:13.215Z,84.65
2023-01-20T06:33:18.552Z,71.47
2023-01-20T06:35:23.773Z,65.75
2023-01-20T06:37:29.645Z,78.30
2023-01-20T06:39:37.685Z,68.63
2023-01-20T06:41:43.087Z,59.88
2023-01-20T06:43:50.136Z,54.65
2023-01-20T06:45:55.337Z,58.55
2023-01-20T06:48:00.539Z,51.28
2023-01-20T06:50:05.478Z,50.17
2023-01-20T06:52:10.734Z,43.63
2023-01-20T06:54:15.585Z,44.47
2023-01-20T06:56:23.678Z,38.95
2023-01-20T06:58:30.429Z,35.50
2023-01-20T07:00:35.945Z,36.17
2023-01-20T07:02:40.846Z,36.00
2023-01-20T07:04:45.960Z,37.70
2023-01-20T07:06:50.969Z,34.92
2023-01-20T07:08:58.849Z,35.95
2023-01-20T07:11:03.917Z,38.58
2023-01-20T07:13:11.360Z,30.60
2023-01-20T07:15:16.666Z,37.78
2023-01-20T07:17:21.980Z,36.20
2023-01-20T07:19:27.226Z,32.08
2023-01-20T07:21:32.176Z,32.33
2023-01-20T07:23:37.048Z,40.33
2023-01-20T07:25:41.998Z,38.50
2023-01-20T07:27:47.284Z,35.03
2023-01-20T07:29:54.745Z,38.40
2023-01-20T07:32:02.367Z,42.80
2023-01-20T07:34:09.178Z,39.25
2023-01-20T07:36:18.725Z,36.10
2023-01-20T07:38:25.687Z,42.20
2023-01-20T07:40:32.894Z,38.95
2023-01-20T07:42:40.749Z,34.60
2023-01-20T07:44:45.607Z,37.28
2023-01-20T07:46:54.484Z,34.22
2023-01-20T07:49:00.039Z,40.13
2023-01-20T07:51:08.804Z,37.85
2023-01-20T07:53:14.511Z,39.90
2023-01-20T07:55:19.650Z,39.58
2023-01-20T07:57:24.919Z,43.25
2023-01-20T07:59:30.650Z,44.25
2023-01-20T08:01:38.813Z,38.17
2023-01-20T08:03:46.704Z,41.15
2023-01-20T08:05:51.583Z,37.13
2023-01-20T08:07:57.538Z,39.05
2023-01-20T08:10:02.438Z,37.72
2023-01-20T08:12:08.832Z,37.95
2023-01-20T08:14:13.748Z,40.00
2023-01-20T08:16:20.879Z,40.10
2023-01-20T08:18:26.840Z,38.78
2023-01-20T08:20:34.279Z,42.35
2023-01-20T08:22:39.285Z,36.97
2023-01-20T08:24:44.392Z,37.58
2023-01-20T08:26:49.297Z,41.63
2023-01-20T08:28:56.302Z,36.53
2023-01-20T08:31:08.285Z,39.65
2023-01-20T08:33:13.307Z,39.07
2023-01-20T08:35:19.319Z,35.10
2023-01-20T08:37:26.962Z,42.15
2023-01-20T08:39:32.655Z,37.88
2023-01-20T08:41:42.456Z,37.72
2023-01-20T08:43:49.222Z,40.00
2023-01-20T08:46:03.440Z,44.25
2023-01-20T08:48:09.977Z,42.25
2023-01-20T08:50:19.295Z,42.50
2023-01-20T08:52:28.845Z,43.17
2023-01-20T08:54:37.158Z,44.05
2023-01-20T08:58:51.986Z,36.10
2023-01-20T09:00:57.397Z,42.08
2023-01-20T09:03:02.318Z,39.58
2023-01-20T09:05:08.771Z,40.83
2023-01-20T09:07:14.433Z,40.15
2023-01-20T09:09:24.544Z,36.13
2023-01-20T09:11:29.810Z,31.40
2023-01-20T09:13:35.773Z,35.40
2023-01-20T09:15:42.941Z,31.85
2023-01-20T09:17:48.673Z,32.60
2023-01-20T09:19:54.735Z,34.95
2023-01-20T09:22:00.424Z,31.23
2023-01-20T09:24:06.016Z,40.60
2023-01-20T09:26:19.715Z,31.83
2023-01-20T09:28:35.827Z,31.95
2023-01-20T09:30:42.750Z,33.33
2023-01-20T09:32:48.153Z,31.50
2023-01-20T09:34:53.091Z,29.75
2023-01-20T09:37:20.964Z,27.65
2023-01-20T09:39:39.249Z,27.85
2023-01-20T09:42:14.989Z,34.60
2023-01-20T09:44:48.346Z,27.20
2023-01-20T09:47:22.913Z,27.15
2023-01-20T09:49:51.650Z,28.10
2023-01-20T09:52:19.537Z,28.70
2023-01-20T09:54:33.764Z,30.50
2023-01-20T09:56:48.963Z,29.88
2023-01-20T09:59:01.190Z,30.08
2023-01-20T10:01:15.495Z,31.63
2023-01-20T10:03:36.989Z,31.75
2023-01-20T10:05:43.071Z,30.90
2023-01-20T10:07:55.692Z,32.63
2023-01-20T10:10:05.815Z,28.45
2023-01-20T10:12:22.728Z,35.28
2023-01-20T10:14:36.603Z,35.10
2023-01-20T10:16:47.578Z,35.70
2023-01-20T10:18:58.318Z,34.45
2023-01-20T10:21:08.552Z,32.70
2023-01-20T10:23:19.714Z,32.40
2023-01-20T10:25:30.891Z,34.92
2023-01-20T10:27:45.958Z,34.05
2023-01-20T10:29:58.333Z,31.35
2023-01-20T10:32:08.316Z,35.03
2023-01-20T10:34:21.231Z,34.88
2023-01-20T10:38:46.347Z,33.03
2023-01-20T10:40:59.012Z,33.38
2023-01-20T10:43:15.675Z,35.25
2023-01-20T10:45:30.444Z,36.30
2023-01-20T10:47:50.548Z,37.92
2023-01-20T10:50:23.778Z,35.08
2023-01-20T10:52:47.908Z,31.02
2023-01-20T10:55:05.333Z,35.47
2023-01-20T10:57:17.218Z,35.20
2023-01-20T10:59:34.612Z,33.60
2023-01-20T11:01:40.654Z,35.97
2023-01-20T11:03:49.005Z,35.83
2023-01-20T11:05:55.858Z,33.35
2023-01-20T11:08:04.223Z,32.75
2023-01-20T11:10:19.464Z,30.98
2023-01-20T11:12:30.548Z,34.70
2023-01-20T11:14:38.702Z,29.17
2023-01-20T11:16:47.270Z,31.17
2023-01-20T11:19:02.424Z,33.33
2023-01-20T11:21:11.983Z,36.63
2023-01-20T11:23:26.966Z,32.53
2023-01-20T11:25:32.833Z,37.90
2023-01-20T11:27:45.312Z,34.05
2023-01-20T11:29:58.605Z,26.05
2023-01-20T11:32:03.941Z,34.72
2023-01-20T11:34:26.990Z,33.53
2023-01-20T11:36:33.263Z,30.13
2023-01-20T11:38:47.627Z,33.95
2023-01-20T11:40:57.521Z,38.00
2023-01-20T11:43:02.755Z,31.05
2023-01-20T11:45:33.024Z,31.13
2023-01-20T11:47:40.256Z,32.35
2023-01-20T11:49:46.019Z,39.38
2023-01-20T11:51:56.634Z,35.05
2023-01-20T11:54:16.890Z,31.30
2023-01-20T11:56:26.652Z,29.05
2023-01-20T11:58:50.406Z,28.38
2023-01-20T12:01:05.379Z,29.23
2023-01-20T12:04:19.021Z,28.38
2023-01-20T12:06:29.260Z,30.13
2023-01-20T12:08:46.932Z,31.77
2023-01-20T12:10:53.988Z,26.95
2023-01-20T12:13:06.538Z,26.55
2023-01-20T12:15:20.147Z,26.75
2023-01-20T12:17:48.792Z,31.58
2023-01-20T12:20:18.353Z,28.83
2023-01-20T12:22:30.788Z,26.80
2023-01-20T12:24:58.559Z,25.75
2023-01-20T12:27:05.360Z,27.75
2023-01-20T12:29:23.340Z,25.40
2023-01-20T12:31:30.112Z,26.65
2023-01-20T12:33:41.646Z,24.30
2023-01-20T12:36:17.080Z,26.88
2023-01-20T12:38:24.343Z,28.85
2023-01-20T12:40:43.138Z,25.98
2023-01-20T12:43:36.085Z,24.70
2023-01-20T12:45:59.659Z,25.58
2023-01-20T12:48:23.814Z,22.90
2023-01-20T12:53:23.250Z,21.98
2023-01-20T12:55:46.135Z,23.23
2023-01-20T12:58:06.611Z,20.63
2023-01-20T13:00:42.222Z,21.58
2023-01-20T13:03:24.316Z,21.33
2023-01-20T13:06:01.330Z,21.48
2023-01-20T13:08:17.865Z,23.15
2023-01-20T13:10:50.215Z,20.20
2023-01-20T13:13:08.163Z,20.67
2023-01-20T13:15:29.116Z,21.05
2023-01-20T13:17:41.816Z,20.63
2023-01-20T13:19:49.628Z,24.20
2023-01-20T13:22:07.691Z,19.92
2023-01-20T13:24:29.288Z,21.25
2023-01-20T13:26:36.563Z,21.38
2023-01-20T13:28:52.857Z,23.70
2023-01-20T13:31:00.599Z,21.02
2023-01-20T13:33:08.933Z,20.45
2023-01-20T13:35:46.910Z,22.02
2023-01-20T13:37:57.709Z,22.90
2023-01-20T13:40:04.204Z,20.98
2023-01-20T13:42:50.391Z,20.75
2023-01-20T13:45:22.561Z,21.02
2023-01-20T13:47:54.460Z,22.23
2023-01-20T13:50:00.116Z,19.77
2023-01-20T13:52:05.974Z,23.77
2023-01-20T13:54:52.360Z,22.85
2023-01-20T13:57:49.174Z,24.88
2023-01-20T13:59:55.319Z,23.48
2023-01-20T14:02:00.922Z,25.35
2023-01-20T14:04:08.098Z,24.77
2023-01-20T14:06:26.209Z,21.00
2023-01-20T14:08:34.306Z,20.88
2023-01-20T14:10:42.795Z,21.02
2023-01-20T14:12:48.247Z,20.63
2023-01-20T14:14:54.175Z,22.50
2023-01-20T14:17:06.167Z,20.65
2023-01-20T14:19:30.577Z,22.40
2023-01-20T14:21:44.249Z,21.98
2023-01-20T14:23:49.746Z,23.95
2023-01-20T14:26:14.377Z,24.02
2023-01-20T14:28:22.846Z,24.95
2023-01-20T14:30:31.342Z,25.63
2023-01-20T14:32:39.688Z,23.48
2023-01-20T14:34:45.948Z,29.98
2023-01-20T14:36:51.658Z,32.38
2023-01-20T14:39:04.187Z,25.02
2023-01-20T14:41:27.340Z,35.95
2023-01-20T14:43:33.103Z,29.42
2023-01-20T14:45:40.111Z,33.88
2023-01-20T14:47:45.636Z,34.25
2023-01-20T14:49:53.900Z,33.28
2023-01-20T14:51:59.491Z,31.30
2023-01-20T14:54:41.321Z,27.75
2023-01-20T14:56:53.136Z,27.80
2023-01-20T14:58:59.789Z,28.30
2023-01-20T15:01:07.749Z,31.20
2023-01-20T15:03:21.105Z,28.70
2023-01-20T15:05:30.768Z,31.40
2023-01-20T15:07:37.065Z,34.50
2023-01-20T15:09:51.798Z,52.00
2023-01-20T15:12:40.801Z,31.30
2023-01-20T15:14:58.246Z,31.92
2023-01-20T15:17:04.355Z,34.85
2023-01-20T15:19:35.716Z,34.88
2023-01-20T15:21:41.890Z,32.67
2023-01-20T15:23:52.533Z,35.97
2023-01-20T15:25:57.782Z,39.47
2023-01-20T15:28:06.698Z,33.95
2023-01-20T15:30:24.456Z,34.53
2023-01-20T15:32:31.197Z,35.45
2023-01-20T15:34:36.760Z,33.78
2023-01-20T15:36:42.544Z,35.85
2023-01-20T15:38:48.733Z,33.53
2023-01-20T15:40:54.515Z,34.50
2023-01-20T15:43:03.846Z,34.85
2023-01-20T15:45:16.577Z,39.22
2023-01-20T15:47:26.137Z,35.63
2023-01-20T15:49:31.860Z,38.80
2023-01-20T15:51:37.330Z,32.28
2023-01-20T15:53:42.883Z,35.95
2023-01-20T15:55:51.791Z,35.92
2023-01-20T15:57:57.011Z,38.47
2023-01-20T16:00:02.425Z,40.00
2023-01-20T16:02:24.784Z,37.88
2023-01-20T16:04:31.684Z,40.03
2023-01-20T16:06:38.050Z,35.58
2023-01-20T16:08:43.797Z,39.20
2023-01-20T16:10:49.673Z,37.58
2023-01-20T16:12:54.596Z,39.67
2023-01-20T16:15:00.433Z,39.83
2023-01-20T16:17:05.711Z,38.22
2023-01-20T16:19:15.722Z,40.05
2023-01-20T16:21:22.495Z,43.40
2023-01-20T16:23:27.372Z,51.25
2023-01-20T16:25:32.822Z,44.65
2023-01-20T16:27:39.175Z,48.08
2023-01-20T16:29:44.558Z,53.08
2023-01-20T16:31:49.850Z,52.17
2023-01-20T16:33:55.633Z,55.28
2023-01-20T16:36:03.076Z,47.15
2023-01-20T16:38:07.974Z,50.20
2023-01-20T16:40:17.200Z,47.22
2023-01-20T16:42:22.369Z,50.15
2023-01-20T16:44:28.249Z,44.78
2023-01-20T16:46:34.850Z,47.22
2023-01-20T16:48:39.695Z,51.35
2023-01-20T16:50:47.765Z,50.97
2023-01-20T16:52:55.828Z,69.82
2023-01-20T16:55:02.161Z,67.05
2023-01-20T16:57:07.645Z,68.28
2023-01-20T16:59:13.596Z,67.63
2023-01-20T17:01:22.172Z,66.45
2023-01-20T17:03:29.566Z,60.53
2023-01-20T17:05:35.133Z,54.97
2023-01-20T17:07:40.594Z,59.03
2023-01-20T17:09:48.212Z,56.63
2023-01-20T17:11:53.091Z,61.13
2023-01-20T17:13:59.157Z,62.25
2023-01-20T17:16:07.791Z,61.70
2023-01-20T17:18:13.517Z,63.15
2023-01-20T17:20:19.875Z,62.33
2023-01-20T17:22:26.137Z,64.63
2023-01-20T17:24:33.029Z,73.65
2023-01-20T17:26:41.436Z,65.40
2023-01-20T17:28:46.817Z,63.22
2023-01-20T17:30:51.938Z,59.08
2023-01-20T17:32:57.175Z,65.80
2023-01-20T17:35:02.730Z,69.00
2023-01-20T17:37:08.127Z,72.00
2023-01-20T17:39:14.325Z,64.88
2023-01-20T17:41:19.875Z,69.22
2023-01-20T17:43:28.430Z,68.80
2023-01-20T17:45:35.270Z,66.22
2023-01-20T17:47:41.097Z,62.65
2023-01-20T17:49:46.878Z,60.67
2023-01-20T17:51:51.716Z,64.78
2023-01-20T17:53:57.812Z,64.18
2023-01-20T17:56:12.504Z,62.65
2023-01-20T17:58:18.620Z,60.30
2023-01-20T18:00:27.665Z,58.22
2023-01-20T18:02:33.214Z,61.92
2023-01-20T18:04:39.247Z,62.40
2023-01-20T18:06:44.143Z,61.45
2023-01-20T18:08:55.117Z,66.10
2023-01-20T18:11:06.184Z,71.97
2023-01-20T18:13:11.131Z,67.57
2023-01-20T18:15:16.374Z,62.63
2023-01-20T18:17:24.286Z,61.22
2023-01-20T18:19:29.917Z,62.80
2023-01-20T18:21:37.843Z,61.85
2023-01-20T18:23:43.685Z,65.38
2023-01-20T18:25:48.587Z,59.55
2023-01-20T18:27:53.911Z,69.63
2023-01-20T18:29:58.958Z,62.50
2023-01-20T18:32:04.238Z,63.92
2023-01-20T18:34:15.911Z,72.90
2023-01-20T18:36:24.342Z,68.32
2023-01-20T18:38:29.200Z,71.93
2023-01-20T18:40:34.559Z,62.72
2023-01-20T18:42:39.464Z,71.40
2023-01-20T18:44:44.360Z,66.60
2023-01-20T18:46:49.535Z,62.47
2023-01-20T18:48:55.524Z,71.15
2023-01-20T18:51:04.354Z,62.88
2023-01-20T18:53:09.214Z,68.13
2023-01-20T18:55:14.153Z,63.97
2023-01-20T18:57:19.136Z,66.78
2023-01-20T18:59:24.034Z,65.32
2023-01-20T19:01:32.583Z,71.95
2023-01-20T19:03:39.617Z,72.30
2023-01-20T19:05:44.959Z,65.75
2023-01-20T19:07:54.513Z,69.95
2023-01-20T19:09:59.504Z,68.15
2023-01-20T19:12:04.763Z,70.07
2023-01-20T19:14:11.679Z,71.68
2023-01-20T19:16:16.851Z,64.45
2023-01-20T19:18:21.836Z,63.20
2023-01-20T19:20:26.811Z,66.65
2023-01-20T19:22:32.599Z,64.47
2023-01-20T19:24:40.246Z,63.58
2023-01-20T19:26:45.218Z,65.28
2023-01-20T19:28:59.950Z,62.45
2023-01-20T19:31:09.938Z,63.55
2023-01-20T19:33:16.206Z,59.72
2023-01-20T19:35:21.164Z,64.43
2023-01-20T19:37:26.080Z,61.63
2023-01-20T19:39:31.013Z,61.60
2023-01-20T19:41:39.585Z,59.00
2023-01-20T19:43:45.140Z,66.07
2023-01-20T19:45:50.263Z,104.28
2023-01-20T19:47:55.933Z,134.68
2023-01-20T19:50:01.283Z,86.47
2023-01-20T19:52:06.607Z,98.53
2023-01-20T19:54:14.814Z,123.10
2023-01-20T19:56:22.253Z,115.55
2023-01-20T19:58:29.753Z,95.68
2023-01-20T20:00:34.760Z,100.03
2023-01-20T20:02:41.429Z,86.72
2023-01-20T20:04:46.427Z,98.82
2023-01-20T20:06:51.309Z,97.00
2023-01-20T20:09:01.271Z,92.40
2023-01-20T20:11:06.233Z,94.13
2023-01-20T20:13:11.107Z,89.25
2023-01-20T20:15:18.702Z,95.28
2023-01-20T20:17:25.681Z,96.80
2023-01-20T20:19:30.628Z,105.97
2023-01-20T20:21:37.262Z,104.25
2023-01-20T20:23:42.114Z,102.88
2023-01-20T20:25:53.893Z,99.20
2023-01-20T20:27:59.096Z,95.30
2023-01-20T20:30:06.925Z,103.25
2023-01-20T20:32:14.568Z,101.30
2023-01-20T20:34:21.548Z,101.20
2023-01-20T20:36:28.377Z,105.97
2023-01-20T20:38:34.328Z,107.13
2023-01-20T20:40:40.014Z,108.88
2023-01-20T20:42:44.855Z,125.93
2023-01-20T20:44:50.141Z,129.27
2023-01-20T20:46:55.387Z,126.95
2023-01-20T20:49:04.084Z,142.60
2023-01-20T20:51:10.342Z,133.10
2023-01-20T20:53:15.374Z,118.88
2023-01-20T20:55:20.607Z,114.97
2023-01-20T20:57:25.894Z,128.30
2023-01-20T20:59:30.760Z,115.30
2023-01-20T21:01:36.953Z,133.63
2023-01-20T21:03:42.357Z,102.63
2023-01-20T21:05:50.681Z,107.85
2023-01-20T21:07:55.570Z,110.55
2023-01-20T21:10:01.375Z,93.78
2023-01-20T21:12:07.391Z,97.63
2023-01-20T21:14:12.324Z,96.15
2023-01-20T21:16:22.020Z,75.63
2023-01-20T21:18:27.458Z,80.70
2023-01-20T21:20:33.584Z,84.82
2023-01-20T21:22:41.061Z,84.03
2023-01-20T21:24:46.039Z,96.72
2023-01-20T21:26:51.028Z,88.30
2023-01-20T21:28:56.188Z,84.15
2023-01-20T21:31:01.637Z,82.55
2023-01-20T21:33:07.011Z,79.85
2023-01-20T21:35:12.933Z,69.03
2023-01-20T21:37:22.057Z,70.13
2023-01-20T21:39:29.917Z,76.82
2023-01-20T21:41:34.793Z,70.30
2023-01-20T21:43:55.372Z,81.68
2023-01-20T21:46:00.237Z,82.80
2023-01-20T21:48:25.377Z,88.35
2023-01-20T21:50:43.111Z,98.60
2023-01-20T21:52:45.870Z,84.43
2023-01-20T21:56:58.393Z,84.85
2023-01-20T21:59:03.312Z,76.20
2023-01-20T22:01:08.977Z,80.57
2023-01-20T22:03:13.809Z,78.82
2023-01-20T22:05:19.325Z,70.53
2023-01-20T22:07:25.132Z,69.78
2023-01-20T22:09:29.994Z,72.30
2023-01-20T22:11:38.429Z,70.53
2023-01-20T22:13:44.202Z,64.28
2023-01-20T22:15:50.091Z,71.13
2023-01-20T22:17:55.331Z,69.90
2023-01-20T22:20:00.228Z,75.32
2023-01-20T22:22:06.547Z,66.75
2023-01-20T22:24:12.744Z,73.43
2023-01-20T22:26:17.978Z,76.43
2023-01-20T22:28:26.225Z,67.38
2023-01-20T22:30:31.148Z,66.53
2023-01-20T22:32:36.315Z,61.47
2023-01-20T22:34:41.504Z,66.35
2023-01-20T22:36:46.710Z,62.88
2023-01-20T22:38:53.846Z,68.93
2023-01-20T22:41:04.412Z,60.75
2023-01-20T22:43:09.342Z,62.05
2023-01-20T22:45:16.989Z,57.70
2023-01-20T22:47:22.178Z,53.08
2023-01-20T22:49:27.074Z,57.50
2023-01-20T22:51:33.268Z,56.80
2023-01-20T22:53:39.259Z,55.85
2023-01-20T22:56:00.049Z,61.25
2023-01-20T22:58:05.940Z,54.50
2023-01-20T23:00:13.821Z,55.15
2023-01-20T23:02:21.632Z,59.03
2023-01-20T23:04:27.442Z,51.20
2023-01-20T23:06:34.816Z,51.63
2023-01-20T23:08:40.651Z,55.28
2023-01-20T23:10:51.702Z,61.33
2023-01-20T23:12:56.923Z,61.63
2023-01-20T23:15:02.643Z,58.60
2023-01-20T23:17:07.506Z,65.10
2023-01-20T23:19:16.996Z,58.90
2023-01-20T23:21:22.729Z,63.83
2023-01-20T23:23:29.561Z,58.03
2023-01-20T23:25:34.520Z,58.15
2023-01-20T23:27:39.461Z,50.22
2023-01-20T23:29:45.109Z,52.40
2023-01-20T23:31:50.044Z,53.28
2023-01-20T23:34:00.592Z,50.22
2023-01-20T23:36:15.130Z,51.90
2023-01-20T23:38:20.288Z,53.25
2023-01-20T23:40:26.328Z,57.67
2023-01-20T23:42:31.191Z,62.80
2023-01-20T23:44:36.098Z,56.60
2023-01-20T23:46:41.009Z,61.80
2023-01-20T23:48:48.347Z,59.45
2023-01-20T23:50:54.015Z,60.88
2023-01-20T23:53:02.887Z,61.00
2023-01-20T23:55:09.988Z,55.83
2023-01-20T23:57:14.878Z,60.95
2023-01-20T23:59:20.434Z,58.80
